createdAt,value
2018-02-18T00:00:23.442Z,70.47
2018-02-18T00:02:49.914Z,71.11
2018-02-18T00:05:16.313Z,71.56
2018-02-18T00:07:42.705Z,71.63
2018-02-18T00:10:09.181Z,71.22
2018-02-18T00:12:35.709Z,71.17
2018-02-18T00:15:12.026Z,70.67
2018-02-18T00:17:38.378Z,71.02
2018-02-18T00:20:04.821Z,70.80
2018-02-18T00:22:31.193Z,71.08
2018-02-18T00:24:57.569Z,70.72
2018-02-18T00:27:24.042Z,70.64
2018-02-18T00:29:50.402Z,71.18
2018-02-18T00:32:16.963Z,70.98
2018-02-18T00:34:43.414Z,71.08
2018-02-18T00:37:09.804Z,70.83
2018-02-18T00:39:36.341Z,71.22
2018-02-18T00:42:02.854Z,71.05
2018-02-18T00:44:29.178Z,70.60
2018-02-18T00:46:55.569Z,70.39
2018-02-18T00:49:21.948Z,70.53
2018-02-18T00:51:48.549Z,71.00
2018-02-18T00:54:14.942Z,70.86
2018-02-18T00:56:41.373Z,71.36
2018-02-18T00:59:07.749Z,71.59
2018-02-18T01:01:34.185Z,71.30
2018-02-18T01:04:00.617Z,70.73
2018-02-18T01:06:27.038Z,71.26
2018-02-18T01:08:53.458Z,71.29
2018-02-18T01:11:19.870Z,70.64
2018-02-18T01:13:46.306Z,70.89
2018-02-18T01:16:12.702Z,71.07
2018-02-18T01:18:39.106Z,71.07
2018-02-18T01:21:05.503Z,70.64
2018-02-18T01:23:31.872Z,71.07
2018-02-18T01:25:58.254Z,71.49
2018-02-18T01:28:24.666Z,71.96
2018-02-18T01:30:51.098Z,72.20
2018-02-18T01:33:17.518Z,71.78
2018-02-18T01:35:43.922Z,71.82
2018-02-18T01:38:10.321Z,71.89
2018-02-18T01:40:36.673Z,71.71
2018-02-18T01:43:03.046Z,71.58
2018-02-18T01:45:29.477Z,71.64
2018-02-18T01:47:55.829Z,71.24
2018-02-18T01:50:34.441Z,71.27
2018-02-18T01:53:00.817Z,70.32
2018-02-18T01:55:27.205Z,70.10
2018-02-18T01:57:53.539Z,70.90
2018-02-18T02:00:19.933Z,72.33
2018-02-18T02:02:46.296Z,72.62
2018-02-18T02:05:12.632Z,72.16
2018-02-18T02:07:38.998Z,72.07
2018-02-18T02:10:05.370Z,71.80
2018-02-18T02:12:31.719Z,71.58
2018-02-18T02:14:58.160Z,71.34
2018-02-18T02:17:24.501Z,71.04
2018-02-18T02:19:50.875Z,71.33
2018-02-18T02:22:17.257Z,70.91
2018-02-18T02:24:43.610Z,71.13
2018-02-18T02:27:09.996Z,71.00
2018-02-18T02:29:36.350Z,70.81
2018-02-18T02:32:02.753Z,70.71
2018-02-18T02:34:29.162Z,70.29
2018-02-18T02:36:55.558Z,70.59
2018-02-18T02:39:21.982Z,70.75
2018-02-18T02:41:48.370Z,70.23
2018-02-18T02:44:14.717Z,70.32
2018-02-18T02:46:41.073Z,70.10
2018-02-18T02:49:07.470Z,69.43
2018-02-18T02:51:33.846Z,69.95
2018-02-18T02:54:00.190Z,70.21
2018-02-18T02:56:26.562Z,70.68
2018-02-18T02:58:52.942Z,69.06
2018-02-18T03:01:19.278Z,69.37
2018-02-18T03:03:45.642Z,69.78
2018-02-18T03:06:12.086Z,70.19
2018-02-18T03:08:38.424Z,69.79
2018-02-18T03:11:04.761Z,69.37
2018-02-18T03:13:31.148Z,68.97
2018-02-18T03:15:57.507Z,68.75
2018-02-18T03:18:23.921Z,69.38
2018-02-18T03:20:50.298Z,68.97
2018-02-18T03:23:16.654Z,68.93
2018-02-18T03:25:43.006Z,69.01
2018-02-18T03:28:09.422Z,68.93
2018-02-18T03:30:35.768Z,68.44
2018-02-18T03:33:02.129Z,69.20
2018-02-18T03:35:28.535Z,68.21
2018-02-18T03:37:54.886Z,69.35
2018-02-18T03:40:21.250Z,69.41
2018-02-18T03:42:47.658Z,69.52
2018-02-18T03:45:14.014Z,68.59
2018-02-18T03:47:40.381Z,68.99
2018-02-18T03:50:06.775Z,68.46
2018-02-18T03:52:33.238Z,68.62
2018-02-18T03:54:59.650Z,68.37
2018-02-18T03:57:26.002Z,67.80
2018-02-18T03:59:52.414Z,67.60
2018-02-18T04:02:18.846Z,67.76
2018-02-18T04:04:45.205Z,67.41
2018-02-18T04:07:11.578Z,67.71
2018-02-18T04:09:37.918Z,67.36
2018-02-18T04:12:04.249Z,67.61
2018-02-18T04:14:30.645Z,67.84
2018-02-18T04:16:56.965Z,67.36
2018-02-18T04:19:23.290Z,67.36
2018-02-18T04:21:49.674Z,67.02
2018-02-18T04:24:16.157Z,66.80
2018-02-18T04:26:42.653Z,67.57
2018-02-18T04:29:08.985Z,67.59
2018-02-18T04:31:35.368Z,67.78
2018-02-18T04:34:01.737Z,67.81
2018-02-18T04:36:28.085Z,67.23
2018-02-18T04:38:54.601Z,67.65
2018-02-18T04:41:20.973Z,68.02
2018-02-18T04:43:47.329Z,67.42
2018-02-18T04:46:13.655Z,67.61
2018-02-18T04:48:40.012Z,68.41
2018-02-18T04:51:06.510Z,68.23
2018-02-18T04:53:32.966Z,67.67
2018-02-18T04:55:59.296Z,68.16
2018-02-18T04:58:25.810Z,68.59
2018-02-18T05:00:52.197Z,67.51
2018-02-18T05:03:18.550Z,67.42
2018-02-18T05:05:44.926Z,68.02
2018-02-18T05:08:11.341Z,68.26
2018-02-18T05:10:37.673Z,67.85
2018-02-18T05:13:04.058Z,67.26
2018-02-18T05:15:30.430Z,67.91
2018-02-18T05:17:56.787Z,68.24
2018-02-18T05:20:23.142Z,68.08
2018-02-18T05:22:49.569Z,68.05
2018-02-18T05:25:15.905Z,67.97
2018-02-18T05:27:42.270Z,67.46
2018-02-18T05:30:08.673Z,66.65
2018-02-18T05:32:35.897Z,66.99
2018-02-18T05:35:02.246Z,67.05
2018-02-18T05:37:28.637Z,67.46
2018-02-18T05:39:54.977Z,68.12
2018-02-18T05:42:21.477Z,67.43
2018-02-18T05:44:47.814Z,67.93
2018-02-18T05:47:14.214Z,68.75
2018-02-18T05:49:40.578Z,68.90
2018-02-18T05:52:06.961Z,68.11
2018-02-18T05:54:33.309Z,68.02
2018-02-18T05:56:59.728Z,67.19
2018-02-18T05:59:26.109Z,66.96
2018-02-18T06:01:52.547Z,69.10
2018-02-18T06:04:18.911Z,72.82
2018-02-18T06:06:45.326Z,70.28
2018-02-18T06:09:11.658Z,68.66
2018-02-18T06:11:38.050Z,67.94
2018-02-18T06:14:04.433Z,67.57
2018-02-18T06:16:30.770Z,66.86
2018-02-18T06:18:57.166Z,66.94
2018-02-18T06:21:23.690Z,66.71
2018-02-18T06:23:50.026Z,67.03
2018-02-18T06:26:16.357Z,67.22
2018-02-18T06:28:42.738Z,67.30
2018-02-18T06:31:09.107Z,68.19
2018-02-18T06:33:35.446Z,67.78
2018-02-18T06:36:01.852Z,67.72
2018-02-18T06:38:28.191Z,67.90
2018-02-18T06:40:54.578Z,68.14
2018-02-18T06:43:21.019Z,70.48
2018-02-18T06:45:47.434Z,73.24
2018-02-18T06:48:13.853Z,73.05
2018-02-18T06:50:40.454Z,69.32
2018-02-18T06:53:07.101Z,69.09
2018-02-18T06:55:33.462Z,67.96
2018-02-18T06:57:59.817Z,68.29
2018-02-18T07:00:26.249Z,68.37
2018-02-18T07:02:52.597Z,68.61
2018-02-18T07:05:18.930Z,68.36
2018-02-18T07:07:45.294Z,68.37
2018-02-18T07:10:11.621Z,68.19
2018-02-18T07:12:37.958Z,68.52
2018-02-18T07:15:04.373Z,68.44
2018-02-18T07:17:30.709Z,68.60
2018-02-18T07:19:57.118Z,68.37
2018-02-18T07:22:23.674Z,68.51
2018-02-18T07:24:50.030Z,69.21
2018-02-18T07:27:16.420Z,68.65
2018-02-18T07:29:42.829Z,68.45
2018-02-18T07:32:09.233Z,68.18
2018-02-18T07:34:35.597Z,68.38
2018-02-18T07:37:01.998Z,68.59
2018-02-18T07:39:28.346Z,68.07
2018-02-18T07:41:54.705Z,67.20
2018-02-18T07:44:21.102Z,67.01
2018-02-18T07:46:47.493Z,72.54
2018-02-18T07:49:13.843Z,73.70
2018-02-18T07:51:40.241Z,74.95
2018-02-18T07:54:06.568Z,73.64
2018-02-18T07:56:32.914Z,73.18
2018-02-18T07:58:59.286Z,70.87
2018-02-18T08:01:25.686Z,72.74
2018-02-18T08:03:52.052Z,74.57
2018-02-18T08:06:18.478Z,71.68
2018-02-18T08:08:44.814Z,74.09
2018-02-18T08:11:11.141Z,72.49
2018-02-18T08:13:37.553Z,70.15
2018-02-18T08:16:03.894Z,70.11
2018-02-18T08:18:30.347Z,70.26
2018-02-18T08:20:56.728Z,70.86
2018-02-18T08:23:23.083Z,69.85
2018-02-18T08:25:49.475Z,70.18
2018-02-18T08:28:15.918Z,67.85
2018-02-18T08:30:42.270Z,69.34
2018-02-18T08:33:08.606Z,73.60
2018-02-18T08:35:35.250Z,74.39
2018-02-18T08:38:01.600Z,74.01
2018-02-18T08:40:27.926Z,74.06
2018-02-18T08:42:54.378Z,73.16
2018-02-18T08:45:20.724Z,72.50
2018-02-18T08:47:47.082Z,74.00
2018-02-18T08:50:13.443Z,72.63
2018-02-18T08:52:40.170Z,70.61
2018-02-18T08:55:06.518Z,71.10
2018-02-18T08:57:32.912Z,69.09
2018-02-18T08:59:59.450Z,69.49
2018-02-18T09:02:25.807Z,70.61
2018-02-18T09:04:52.223Z,69.26
2018-02-18T09:07:18.555Z,68.33
2018-02-18T09:09:44.934Z,67.45
2018-02-18T09:12:11.330Z,69.42
2018-02-18T09:14:37.686Z,68.90
2018-02-18T09:17:04.147Z,71.90
2018-02-18T09:19:30.520Z,73.17
2018-02-18T09:21:56.895Z,71.64
2018-02-18T09:24:23.354Z,69.56
2018-02-18T09:26:49.803Z,68.88
2018-02-18T09:29:16.142Z,70.46
2018-02-18T09:31:42.478Z,69.32
2018-02-18T09:34:08.875Z,70.36
2018-02-18T09:36:35.225Z,68.93
2018-02-18T09:39:01.747Z,70.22
2018-02-18T09:41:28.202Z,71.82
2018-02-18T09:43:54.541Z,71.86
2018-02-18T09:46:20.900Z,70.07
2018-02-18T09:48:47.302Z,67.08
2018-02-18T09:51:13.662Z,67.07
2018-02-18T09:53:40.026Z,68.95
2018-02-18T09:58:39.358Z,67.01
2018-02-18T10:01:05.707Z,67.95
2018-02-18T10:03:32.082Z,69.00
2018-02-18T10:05:58.450Z,69.85
2018-02-18T10:08:24.830Z,71.64
2018-02-18T10:10:51.280Z,68.68
2018-02-18T10:13:17.649Z,67.31
2018-02-18T10:15:44.010Z,67.55
2018-02-18T10:18:10.490Z,66.77
2018-02-18T10:20:36.861Z,65.62
2018-02-18T10:23:03.239Z,65.90
2018-02-18T10:25:29.694Z,70.18
2018-02-18T10:27:56.041Z,67.17
2018-02-18T10:30:22.393Z,70.92
2018-02-18T10:32:48.779Z,70.46
2018-02-18T10:35:15.129Z,69.77
2018-02-18T10:37:41.493Z,69.94
2018-02-18T10:40:07.879Z,69.03
2018-02-18T10:42:34.237Z,67.73
2018-02-18T10:45:00.583Z,65.22
2018-02-18T10:47:26.954Z,65.71
2018-02-18T10:49:53.353Z,67.69
2018-02-18T10:52:19.768Z,66.42
2018-02-18T10:54:46.182Z,69.58
2018-02-18T10:57:12.522Z,65.92
2018-02-18T10:59:38.875Z,68.65
2018-02-18T11:02:05.286Z,70.04
2018-02-18T11:04:31.699Z,67.10
2018-02-18T11:06:58.081Z,69.63
2018-02-18T11:09:24.456Z,68.45
2018-02-18T11:11:50.817Z,68.63
2018-02-18T11:14:17.185Z,70.04
2018-02-18T11:16:43.573Z,66.35
2018-02-18T11:19:09.941Z,67.62
2018-02-18T11:21:36.302Z,67.55
2018-02-18T11:24:02.739Z,64.67
2018-02-18T11:26:29.089Z,64.06
2018-02-18T11:28:55.456Z,63.61
2018-02-18T11:31:21.845Z,65.40
2018-02-18T11:33:48.225Z,65.45
2018-02-18T11:36:14.613Z,63.50
2018-02-18T11:38:41.009Z,62.78
2018-02-18T11:41:07.378Z,67.46
2018-02-18T11:43:33.707Z,63.43
2018-02-18T11:46:00.106Z,62.25
2018-02-18T11:48:26.524Z,64.41
2018-02-18T11:50:52.885Z,64.61
2018-02-18T11:53:19.272Z,63.02
2018-02-18T11:55:45.650Z,66.21
2018-02-18T11:58:12.078Z,64.98
2018-02-18T12:00:38.498Z,62.74
2018-02-18T12:03:04.885Z,62.36
2018-02-18T12:05:31.241Z,61.26
2018-02-18T12:07:57.608Z,61.26
2018-02-18T12:10:23.978Z,65.95
2018-02-18T12:12:50.318Z,63.64
2018-02-18T12:15:16.677Z,61.69
2018-02-18T12:17:43.034Z,63.11
2018-02-18T12:20:09.444Z,61.80
2018-02-18T12:22:35.977Z,62.49
2018-02-18T12:25:02.414Z,61.35
2018-02-18T12:27:28.771Z,62.17
2018-02-18T12:29:55.122Z,65.91
2018-02-18T12:32:21.579Z,63.98
2018-02-18T12:34:47.962Z,63.91
2018-02-18T12:37:14.318Z,63.89
2018-02-18T12:39:40.729Z,62.72
2018-02-18T12:42:07.102Z,64.60
2018-02-18T12:44:33.461Z,63.26
2018-02-18T12:46:59.903Z,65.55
2018-02-18T12:49:26.234Z,66.15
2018-02-18T12:51:52.634Z,65.21
2018-02-18T12:54:19.042Z,66.90
2018-02-18T12:56:45.405Z,64.43
2018-02-18T12:59:11.738Z,65.79
2018-02-18T13:01:38.127Z,63.48
2018-02-18T13:04:04.489Z,66.31
2018-02-18T13:06:30.840Z,66.21
2018-02-18T13:08:57.276Z,64.90
2018-02-18T13:11:23.637Z,66.62
2018-02-18T13:13:49.999Z,66.20
2018-02-18T13:16:16.381Z,66.93
2018-02-18T13:18:42.750Z,66.86
2018-02-18T13:21:09.138Z,62.68
2018-02-18T13:23:35.539Z,61.86
2018-02-18T13:26:01.887Z,63.66
2018-02-18T13:28:28.231Z,63.48
2018-02-18T13:30:54.619Z,64.89
2018-02-18T13:33:20.974Z,62.45
2018-02-18T13:35:47.312Z,62.63
2018-02-18T13:38:13.671Z,61.96
2018-02-18T13:40:40.066Z,63.31
2018-02-18T13:43:06.434Z,64.48
2018-02-18T13:45:32.823Z,64.42
2018-02-18T13:47:59.212Z,66.46
2018-02-18T13:50:25.698Z,66.83
2018-02-18T13:52:52.051Z,65.49
2018-02-18T13:55:18.439Z,67.30
2018-02-18T13:57:44.792Z,66.05
2018-02-18T14:00:11.210Z,65.27
2018-02-18T14:02:37.558Z,62.35
2018-02-18T14:05:03.938Z,63.21
2018-02-18T14:07:30.299Z,65.52
2018-02-18T14:09:56.649Z,65.22
2018-02-18T14:12:23.109Z,63.59
2018-02-18T14:14:49.449Z,63.69
2018-02-18T14:17:15.825Z,62.64
2018-02-18T14:19:42.222Z,64.26
2018-02-18T14:22:08.573Z,65.52
2018-02-18T14:24:35.037Z,61.99
2018-02-18T14:27:01.442Z,63.13
2018-02-18T14:29:27.810Z,62.30
2018-02-18T14:31:54.325Z,62.22
2018-02-18T14:34:20.701Z,62.08
2018-02-18T14:36:47.109Z,62.74
2018-02-18T14:39:13.496Z,64.73
2018-02-18T14:41:51.969Z,64.16
2018-02-18T14:44:30.487Z,64.92
2018-02-18T15:00:20.413Z,64.55
2018-02-18T15:02:46.801Z,64.35
2018-02-18T15:05:13.185Z,64.67
2018-02-18T15:07:39.668Z,64.22
2018-02-18T15:10:06.181Z,64.46
2018-02-18T15:12:32.594Z,65.35
2018-02-18T15:14:59.186Z,64.78
2018-02-18T15:17:25.569Z,65.04
2018-02-18T15:19:51.957Z,64.47
2018-02-18T15:22:18.413Z,65.50
2018-02-18T15:24:44.806Z,64.70
2018-02-18T15:27:11.198Z,66.01
2018-02-18T15:29:37.598Z,64.32
2018-02-18T15:32:04.014Z,64.83
2018-02-18T15:34:30.412Z,65.03
2018-02-18T15:36:56.886Z,64.34
2018-02-18T15:39:23.282Z,64.44
2018-02-18T15:41:49.634Z,64.38
2018-02-18T15:44:16.042Z,64.11
2018-02-18T15:46:42.459Z,64.21
2018-02-18T15:49:08.829Z,64.26
2018-02-18T15:51:35.297Z,64.41
2018-02-18T15:54:01.694Z,65.12
2018-02-18T15:56:28.061Z,65.02
2018-02-18T15:58:54.506Z,65.32
2018-02-18T16:01:20.906Z,65.40
2018-02-18T16:03:47.254Z,65.56
2018-02-18T16:06:13.680Z,65.46
2018-02-18T16:08:40.026Z,65.66
2018-02-18T16:11:06.421Z,66.66
2018-02-18T16:13:32.802Z,66.02
2018-02-18T16:15:59.341Z,66.02
2018-02-18T16:18:25.697Z,65.98
2018-02-18T16:20:52.217Z,66.09
2018-02-18T16:23:18.641Z,66.25
2018-02-18T16:25:45.003Z,66.54
2018-02-18T16:28:11.478Z,66.68
2018-02-18T16:30:37.858Z,66.85
2018-02-18T16:33:04.261Z,67.02
2018-02-18T16:35:30.687Z,67.13
2018-02-18T16:37:57.031Z,67.15
2018-02-18T16:40:23.701Z,67.33
2018-02-18T16:42:50.114Z,67.41
2018-02-18T16:45:16.505Z,67.50
2018-02-18T16:47:42.858Z,67.62
2018-02-18T16:50:09.237Z,67.55
2018-02-18T16:52:35.593Z,67.73
2018-02-18T16:55:01.961Z,67.85
2018-02-18T16:57:28.388Z,68.01
2018-02-18T16:59:54.766Z,68.14
2018-02-18T17:02:21.126Z,68.23
2018-02-18T17:04:47.498Z,68.38
2018-02-18T17:07:13.854Z,68.40
2018-02-18T17:09:40.261Z,68.48
2018-02-18T17:12:06.650Z,68.72
2018-02-18T17:14:33.019Z,68.67
2018-02-18T17:16:59.500Z,68.76
2018-02-18T17:19:25.898Z,68.96
2018-02-18T17:21:52.309Z,69.09
2018-02-18T17:24:18.894Z,69.66
2018-02-18T17:26:45.382Z,69.42
2018-02-18T17:29:11.761Z,69.30
2018-02-18T17:31:38.181Z,69.58
2018-02-18T17:34:04.564Z,69.73
2018-02-18T17:36:30.973Z,70.03
2018-02-18T17:38:57.381Z,69.98
2018-02-18T17:41:23.757Z,69.67
2018-02-18T17:43:50.148Z,69.71
2018-02-18T17:46:16.601Z,69.55
2018-02-18T17:48:42.973Z,69.60
2018-02-18T17:51:09.431Z,69.72
2018-02-18T17:53:35.862Z,69.64
2018-02-18T17:56:02.213Z,69.92
2018-02-18T17:58:28.578Z,69.71
2018-02-18T18:00:54.985Z,69.73
2018-02-18T18:03:21.647Z,69.66
2018-02-18T18:05:48.045Z,69.65
2018-02-18T18:08:14.478Z,69.90
2018-02-18T18:10:40.936Z,69.81
2018-02-18T18:13:07.298Z,69.98
2018-02-18T18:15:33.885Z,69.99
2018-02-18T18:18:00.352Z,70.21
2018-02-18T18:20:26.710Z,70.28
2018-02-18T18:22:53.243Z,70.22
2018-02-18T18:25:26.548Z,70.49
2018-02-18T18:27:52.962Z,70.40
2018-02-18T18:30:19.506Z,70.57
2018-02-18T18:32:45.878Z,70.63
2018-02-18T18:35:12.290Z,70.68
2018-02-18T18:37:38.872Z,70.73
2018-02-18T18:40:05.309Z,70.84
2018-02-18T18:42:31.797Z,71.14
2018-02-18T18:44:58.178Z,71.11
2018-02-18T18:47:24.614Z,71.27
2018-02-18T18:49:51.037Z,71.37
2018-02-18T18:52:17.403Z,71.31
2018-02-18T18:54:45.063Z,71.43
2018-02-18T18:57:12.439Z,71.46
2018-02-18T18:59:38.846Z,71.39
2018-02-18T19:02:05.225Z,71.63
2018-02-18T19:04:31.742Z,71.50
2018-02-18T19:06:58.117Z,71.58
2018-02-18T19:09:24.617Z,71.52
2018-02-18T19:11:51.171Z,71.43
2018-02-18T19:14:18.618Z,71.88
2018-02-18T19:16:45.390Z,72.54
2018-02-18T19:19:12.134Z,72.22
2018-02-18T19:21:39.308Z,72.36
2018-02-18T19:24:06.310Z,71.87
2018-02-18T19:26:33.957Z,72.44
2018-02-18T19:29:00.545Z,72.15
2018-02-18T19:31:27.046Z,72.15
2018-02-18T19:33:55.520Z,72.42
2018-02-18T19:36:21.953Z,72.62
2018-02-18T19:38:48.303Z,72.17
2018-02-18T19:41:14.715Z,72.43
2018-02-18T19:43:41.077Z,72.61
2018-02-18T19:46:07.422Z,72.59
2018-02-18T19:48:33.838Z,72.25
2018-02-18T19:51:00.197Z,72.38
2018-02-18T19:53:26.658Z,72.36
2018-02-18T19:55:53.070Z,72.47
2018-02-18T19:58:19.419Z,72.93
2018-02-18T20:00:45.789Z,72.30
2018-02-18T20:03:12.250Z,72.02
2018-02-18T20:05:38.695Z,72.06
2018-02-18T20:08:05.095Z,72.48
2018-02-18T20:10:31.501Z,72.53
2018-02-18T20:12:57.890Z,72.61
2018-02-18T20:15:24.265Z,72.57
2018-02-18T20:17:50.672Z,72.66
2018-02-18T20:20:17.059Z,72.88
2018-02-18T20:22:43.422Z,72.91
2018-02-18T20:25:09.878Z,72.49
2018-02-18T20:27:36.261Z,72.16
2018-02-18T20:30:02.710Z,71.95
2018-02-18T20:32:29.122Z,72.47
2018-02-18T20:34:55.491Z,73.06
2018-02-18T20:37:21.926Z,73.33
2018-02-18T20:39:48.349Z,72.99
2018-02-18T20:42:14.752Z,72.53
2018-02-18T20:44:41.110Z,72.42
2018-02-18T20:47:07.618Z,72.59
2018-02-18T20:49:34.130Z,72.75
2018-02-18T20:52:00.485Z,72.41
2018-02-18T20:54:26.893Z,72.76
2018-02-18T20:56:53.233Z,72.54
2018-02-18T20:59:19.597Z,72.70
2018-02-18T21:01:46.074Z,73.33
2018-02-18T21:04:12.446Z,72.94
2018-02-18T21:06:38.813Z,72.44
2018-02-18T21:09:05.212Z,72.50
2018-02-18T21:11:31.582Z,72.76
2018-02-18T21:13:58.054Z,73.23
2018-02-18T21:16:24.423Z,73.44
2018-02-18T21:18:50.769Z,73.62
2018-02-18T21:21:17.194Z,73.00
2018-02-18T21:23:43.562Z,73.14
2018-02-18T21:26:10.015Z,72.57
2018-02-18T21:28:36.502Z,72.06
2018-02-18T21:31:02.891Z,72.37
2018-02-18T21:33:29.289Z,72.83
2018-02-18T21:35:55.953Z,72.46
2018-02-18T21:38:22.333Z,72.86
2018-02-18T21:40:48.717Z,72.70
2018-02-18T21:43:15.133Z,73.07
2018-02-18T21:45:41.490Z,73.09
2018-02-18T21:48:07.841Z,71.94
2018-02-18T21:50:34.260Z,71.54
2018-02-18T21:53:00.638Z,71.53
2018-02-18T21:55:27.010Z,71.44
2018-02-18T21:57:53.545Z,71.89
2018-02-18T22:00:19.910Z,72.46
2018-02-18T22:02:46.357Z,72.33
2018-02-18T22:05:12.831Z,72.48
2018-02-18T22:07:39.185Z,72.73
2018-02-18T22:10:05.557Z,72.48
2018-02-18T22:12:31.973Z,71.39
2018-02-18T22:14:58.336Z,71.30
2018-02-18T22:17:24.722Z,71.66
2018-02-18T22:19:51.077Z,71.69
2018-02-18T22:22:17.442Z,71.87
2018-02-18T22:24:43.862Z,71.73
2018-02-18T22:27:10.216Z,71.63
2018-02-18T22:29:36.568Z,71.48
2018-02-18T22:32:02.988Z,72.58
2018-02-18T22:34:29.385Z,73.58
2018-02-18T22:36:55.745Z,73.09
2018-02-18T22:39:22.148Z,72.57
2018-02-18T22:41:48.511Z,71.82
2018-02-18T22:44:14.889Z,71.96
2018-02-18T22:46:41.272Z,72.11
2018-02-18T22:49:07.630Z,72.01
2018-02-18T22:51:34.030Z,72.17
2018-02-18T22:54:00.393Z,72.26
2018-02-18T22:56:26.738Z,72.12
2018-02-18T22:58:53.137Z,72.38
2018-02-18T23:01:19.648Z,72.08
2018-02-18T23:03:46.097Z,71.91
2018-02-18T23:06:12.448Z,71.25
2018-02-18T23:08:38.803Z,71.27
2018-02-18T23:11:05.147Z,71.67
2018-02-18T23:13:31.547Z,71.86
2018-02-18T23:29:37.382Z,71.19
2018-02-18T23:32:03.752Z,71.25
2018-02-18T23:34:30.105Z,71.40
2018-02-18T23:36:56.509Z,71.46
2018-02-18T23:39:22.869Z,71.86
2018-02-18T23:41:49.415Z,71.96
2018-02-18T23:44:15.832Z,72.09
2018-02-18T23:46:42.216Z,72.56
2018-02-18T23:49:08.587Z,72.86
2018-02-18T23:51:35.003Z,71.89
2018-02-18T23:54:01.358Z,71.58
2018-02-18T23:56:27.722Z,71.45
2018-02-18T23:58:54.117Z,71.22
